Time;durP1;ratioP1;P1;durP2;ratioP2;P2;SDS_P1;SDS_P2;PMS_P1;PMS_P2;Temp;Humidity;BMP_temperature;BMP_pressure;BME280_temperature;BME280_humidity;BME280_pressure;Samples;Min_cycle;Max_cycle;Signal;HPM_P1;HPM_P2
2022/07/18 00:01:58;;;;;;;16.50;3.70;;;;;;;17.22;60.63;102344.31;5086800;28;20063;-82
2022/07/18 00:04:24;;;;;;;10.52;3.45;;;;;;;17.15;61.53;102333.22;5072829;28;20027;-81
2022/07/18 00:06:49;;;;;;;8.18;3.78;;;;;;;17.13;61.80;102329.81;5076770;28;20025;-81
2022/07/18 00:09:14;;;;;;;6.40;3.47;;;;;;;17.11;61.65;102329.09;5085615;28;20024;-82
2022/07/18 00:11:40;;;;;;;6.45;3.45;;;;;;;17.08;61.91;102327.50;5086164;28;20107;-81
2022/07/18 00:14:05;;;;;;;6.18;3.42;;;;;;;17.06;61.92;102326.78;5085596;28;20024;-82
2022/07/18 00:16:33;;;;;;;7.43;3.47;;;;;;;17.04;62.25;102326.06;5089375;28;20021;-82
2022/07/18 00:18:59;;;;;;;8.02;4.05;;;;;;;16.97;62.58;102330.19;5077183;28;20115;-82
2022/07/18 00:21:25;;;;;;;7.32;3.70;;;;;;;16.89;62.83;102324.59;5078010;28;20032;-82
2022/07/18 00:23:51;;;;;;;8.35;3.55;;;;;;;16.86;62.69;102323.00;5082729;28;20556;-82
2022/07/18 00:26:16;;;;;;;9.27;3.58;;;;;;;16.83;62.77;102315.16;5091913;28;20027;-82
2022/07/18 00:28:42;;;;;;;5.30;3.17;;;;;;;16.80;63.04;102318.09;5089247;28;20076;-82
2022/07/18 00:31:07;;;;;;;6.57;3.72;;;;;;;16.76;63.16;102309.44;5092919;28;20085;-82
2022/07/18 00:33:32;;;;;;;6.82;3.53;;;;;;;16.75;63.34;102304.19;5089057;28;20418;-81
2022/07/18 00:35:58;;;;;;;9.43;3.70;;;;;;;16.70;63.17;102307.22;5072277;28;20032;-82
2022/07/18 00:38:24;;;;;;;8.25;3.80;;;;;;;16.68;63.77;102293.09;5089093;28;20016;-82
2022/07/18 00:40:49;;;;;;;10.82;3.90;;;;;;;16.64;63.91;102299.69;5083858;28;20021;-82
2022/07/18 00:43:15;;;;;;;5.97;3.60;;;;;;;16.63;63.90;102298.81;5083540;28;20053;-82
2022/07/18 00:45:45;;;;;;;6.32;3.58;;;;;;;16.61;64.00;102292.72;5079072;28;20331;-82
2022/07/18 00:48:11;;;;;;;6.95;3.85;;;;;;;16.62;63.55;102293.56;5085653;28;20029;-81
2022/07/18 00:50:37;;;;;;;7.03;3.78;;;;;;;16.58;64.26;102300.16;5086079;28;20036;-82
2022/07/18 00:53:02;;;;;;;7.05;3.40;;;;;;;16.59;64.23;102294.69;5147401;22;20055;-78
2022/07/18 00:55:28;;;;;;;8.10;3.42;;;;;;;16.60;64.16;102293.72;5092773;28;20039;-78
2022/07/18 00:57:56;;;;;;;8.98;3.50;;;;;;;16.56;64.57;102300.28;5092960;28;20024;-77
2022/07/18 01:03:05;;;;;;;8.00;3.72;;;;;;;16.48;64.56;102277.72;5090110;28;20093;-78
2022/07/18 01:05:31;;;;;;;6.28;3.55;;;;;;;16.47;64.91;102290.31;5066681;28;20035;-77
2022/07/18 01:07:56;;;;;;;10.20;4.28;;;;;;;16.46;64.91;102288.59;5080833;28;20020;-77
2022/07/18 01:10:21;;;;;;;7.47;4.10;;;;;;;16.44;64.70;102280.66;5089824;28;20028;-78
2022/07/18 01:12:47;;;;;;;6.90;3.88;;;;;;;16.40;64.73;102284.56;5073181;28;20052;-77
2022/07/18 01:15:13;;;;;;;8.60;4.55;;;;;;;16.39;64.13;102280.16;5090505;28;20097;-77
2022/07/18 01:17:38;;;;;;;10.05;4.60;;;;;;;16.40;63.71;102273.84;5089863;28;20013;-77
2022/07/18 01:20:05;;;;;;;7.40;4.07;;;;;;;16.39;63.88;102276.63;5080331;28;20021;-77
2022/07/18 01:22:31;;;;;;;10.55;4.90;;;;;;;16.38;63.64;102277.59;5071233;28;20016;-76
2022/07/18 01:24:56;;;;;;;8.80;4.63;;;;;;;16.38;62.53;102269.56;5083652;28;20039;-77
2022/07/18 01:27:22;;;;;;;12.15;4.65;;;;;;;16.38;63.25;102272.25;5090261;28;20029;-77
2022/07/18 01:29:50;;;;;;;7.85;5.13;;;;;;;16.35;63.80;102276.00;5075308;28;20033;-78
2022/07/18 01:32:16;;;;;;;6.90;4.63;;;;;;;16.36;63.33;102274.19;5083275;28;20018;-77
2022/07/18 01:34:42;;;;;;;8.55;4.90;;;;;;;16.32;63.34;102275.38;5085316;28;20032;-78
2022/07/18 01:37:08;;;;;;;12.48;4.55;;;;;;;16.33;63.23;102285.16;5076543;28;20502;-78
2022/07/18 01:39:35;;;;;;;8.50;4.88;;;;;;;16.34;62.75;102273.47;5078837;28;20052;-78
2022/07/18 01:42:03;;;;;;;11.50;4.90;;;;;;;16.25;62.46;102270.53;5074438;28;20080;-78
2022/07/18 01:44:29;;;;;;;6.85;4.60;;;;;;;16.24;62.65;102274.19;5092992;28;20036;-77
2022/07/18 01:46:55;;;;;;;7.68;4.30;;;;;;;16.20;62.43;102277.22;5094190;28;20446;-77
2022/07/18 01:49:21;;;;;;;9.23;4.38;;;;;;;16.17;63.09;102289.03;5086486;28;20062;-78
2022/07/18 01:51:48;;;;;;;6.00;4.40;;;;;;;16.15;62.76;102276.72;5093017;28;20040;-77
2022/07/18 01:54:14;;;;;;;5.63;4.28;;;;;;;16.08;63.38;102279.84;5085150;28;20043;-78
2022/07/18 01:56:39;;;;;;;9.77;4.35;;;;;;;16.02;63.81;102269.63;5079209;28;20024;-77
2022/07/18 01:59:05;;;;;;;7.10;4.57;;;;;;;15.99;63.75;102271.69;5086780;28;20047;-78
2022/07/18 02:01:31;;;;;;;9.63;4.63;;;;;;;15.97;64.07;102268.25;5071958;28;20506;-77
2022/07/18 02:03:56;;;;;;;7.80;4.50;;;;;;;15.91;63.83;102264.25;5075622;28;20601;-77
2022/07/18 02:06:21;;;;;;;7.68;4.32;;;;;;;15.87;64.24;102262.75;5091341;28;20024;-78
2022/07/18 02:08:47;;;;;;;8.82;4.45;;;;;;;15.86;64.67;102267.25;5087260;28;20036;-77
2022/07/18 02:11:12;;;;;;;7.40;4.45;;;;;;;15.89;64.28;102266.19;5087361;28;20034;-77
2022/07/18 02:13:38;;;;;;;7.25;4.10;;;;;;;15.86;64.97;102259.22;5092933;28;20024;-77
2022/07/18 02:16:04;;;;;;;7.18;4.05;;;;;;;15.85;64.96;102256.66;5089992;28;20043;-77
2022/07/18 02:18:32;;;;;;;8.20;4.70;;;;;;;15.83;64.59;102251.41;5090297;28;20053;-77
2022/07/18 02:20:58;;;;;;;6.93;4.25;;;;;;;15.82;64.32;102241.69;5077115;28;20028;-78
2022/07/18 02:23:24;;;;;;;11.48;5.10;;;;;;;15.83;64.70;102253.25;5081973;28;20020;-77
2022/07/18 02:25:49;;;;;;;6.82;4.40;;;;;;;15.78;64.86;102250.91;5059185;28;20024;-78
2022/07/18 02:28:15;;;;;;;7.80;4.47;;;;;;;15.77;64.64;102243.00;5077653;28;20368;-77
2022/07/18 02:30:40;;;;;;;9.43;4.93;;;;;;;15.76;64.80;102250.19;5078161;28;20040;-78
2022/07/18 02:33:05;;;;;;;9.68;4.65;;;;;;;15.78;64.39;102252.75;5074062;28;20039;-78
2022/07/18 02:35:31;;;;;;;6.45;4.95;;;;;;;15.67;64.77;102243.69;5063854;28;20460;-78
2022/07/18 02:37:56;;;;;;;10.13;5.78;;;;;;;15.71;64.82;102245.16;5088787;28;20132;-77
2022/07/18 02:40:21;;;;;;;7.45;5.07;;;;;;;15.69;64.75;102249.78;5091547;28;20021;-77
2022/07/18 02:42:47;;;;;;;7.53;5.13;;;;;;;15.67;64.40;102243.69;5090269;28;20024;-77
2022/07/18 02:45:13;;;;;;;7.00;5.13;;;;;;;15.70;64.15;102245.25;5071271;28;20099;-77
2022/07/18 02:47:38;;;;;;;8.13;5.13;;;;;;;15.58;64.51;102233.66;5082892;28;20495;-77
2022/07/18 02:50:04;;;;;;;6.05;4.80;;;;;;;15.57;65.11;102242.69;5088740;28;20035;-77
2022/07/18 02:52:30;;;;;;;10.35;4.57;;;;;;;15.54;64.91;102238.41;5092941;28;20479;-77
2022/07/18 02:54:56;;;;;;;7.95;5.28;;;;;;;15.49;64.81;102237.03;5078698;28;20445;-77
2022/07/18 02:57:22;;;;;;;8.50;5.18;;;;;;;15.48;64.66;102240.69;5094810;28;20032;-77
2022/07/18 02:59:47;;;;;;;11.45;5.25;;;;;;;15.41;65.24;102232.25;5093394;28;20028;-76
2022/07/18 03:02:12;;;;;;;9.02;5.35;;;;;;;15.44;65.13;102237.38;5076721;28;20028;-79
2022/07/18 03:04:38;;;;;;;7.80;5.07;;;;;;;15.41;65.16;102239.44;5091481;28;20027;-78
2022/07/18 03:07:03;;;;;;;7.22;5.05;;;;;;;15.40;65.17;102240.41;5097031;28;20034;-77
2022/07/18 03:09:30;;;;;;;7.35;4.90;;;;;;;15.39;64.98;102236.88;5097100;28;20463;-78
2022/07/18 03:11:56;;;;;;;6.10;4.60;;;;;;;15.40;64.81;102229.69;5074575;28;20013;-77
2022/07/18 03:14:22;;;;;;;9.07;4.88;;;;;;;15.36;65.41;102224.56;5068458;28;20032;-78
2022/07/18 03:16:47;;;;;;;6.63;5.20;;;;;;;15.31;65.42;102215.19;5084745;28;20065;-78
2022/07/18 03:19:12;;;;;;;8.23;5.10;;;;;;;15.24;65.11;102206.75;5083263;28;20371;-78
2022/07/18 03:21:38;;;;;;;5.80;4.65;;;;;;;15.23;65.51;102215.75;5090345;28;20081;-78
2022/07/18 03:24:03;;;;;;;6.90;4.50;;;;;;;15.18;66.07;102199.19;5078382;28;20543;-78
2022/07/18 03:26:29;;;;;;;8.02;4.72;;;;;;;15.19;66.52;102206.25;5082345;28;20036;-78
2022/07/18 03:28:54;;;;;;;8.95;4.80;;;;;;;15.22;66.24;102208.69;5081145;28;20101;-78
2022/07/18 03:31:20;;;;;;;10.02;4.80;;;;;;;15.21;65.87;102206.13;5071740;28;20032;-77
2022/07/18 03:33:45;;;;;;;10.10;5.37;;;;;;;15.17;66.27;102201.00;5093156;28;20050;-79
2022/07/18 03:36:10;;;;;;;7.75;5.30;;;;;;;15.20;66.24;102201.75;5084311;28;20756;-79
2022/07/18 03:38:36;;;;;;;11.18;5.25;;;;;;;15.18;66.25;102204.53;5087177;28;20444;-78
2022/07/18 03:41:02;;;;;;;9.05;5.13;;;;;;;15.17;66.31;102197.47;5097140;28;20026;-77
2022/07/18 03:43:28;;;;;;;8.15;4.55;;;;;;;15.17;66.24;102201.00;5096882;28;20043;-77
2022/07/18 03:45:53;;;;;;;8.30;4.70;;;;;;;15.08;66.78;102196.31;5077493;28;20043;-77
2022/07/18 03:48:19;;;;;;;7.30;4.93;;;;;;;15.03;66.74;102209.19;5079940;28;20074;-77
2022/07/18 03:50:44;;;;;;;7.07;4.85;;;;;;;14.99;66.66;102211.25;5088321;28;20111;-78
2022/07/18 03:53:09;;;;;;;8.23;4.68;;;;;;;15.04;66.82;102210.03;5082655;28;20044;-77
2022/07/18 03:55:35;;;;;;;7.78;4.68;;;;;;;14.99;66.74;102200.53;5081650;28;20475;-77
2022/07/18 03:58:00;;;;;;;7.20;5.22;;;;;;;15.02;66.78;102201.28;5078411;28;20056;-77
2022/07/18 04:00:26;;;;;;;8.13;4.93;;;;;;;14.90;67.29;102189.66;5076507;28;20095;-77
2022/07/18 04:02:51;;;;;;;8.85;4.65;;;;;;;14.92;66.72;102204.66;5087092;28;20040;-78
2022/07/18 04:05:17;;;;;;;9.32;5.43;;;;;;;14.90;67.80;102214.59;5085382;28;20028;-78
2022/07/18 04:07:42;;;;;;;11.23;4.70;;;;;;;14.91;67.53;102194.91;5078223;28;20031;-78
2022/07/18 04:10:10;;;;;;;8.38;4.95;;;;;;;14.93;68.14;102203.66;5090235;28;20012;-78
2022/07/18 04:12:45;;;;;;;9.68;5.35;;;;;;;14.95;67.70;102200.88;5085988;28;20039;-78
2022/07/18 04:15:11;;;;;;;9.80;5.50;;;;;;;14.92;67.98;102195.75;5081200;28;20028;-78
2022/07/18 04:17:36;;;;;;;8.48;5.00;;;;;;;14.93;68.15;102194.78;5088705;28;20046;-78
2022/07/18 04:20:02;;;;;;;6.00;5.30;;;;;;;14.87;68.21;102193.44;5091028;28;20035;-78
2022/07/18 04:22:27;;;;;;;8.95;5.25;;;;;;;14.88;68.69;102189.78;5069475;28;20029;-78
2022/07/18 04:24:53;;;;;;;8.23;4.90;;;;;;;14.88;68.91;102179.06;5093967;28;20035;-79
2022/07/18 04:27:18;;;;;;;10.80;5.17;;;;;;;14.91;68.62;102184.19;5085421;28;20028;-78
2022/07/18 04:29:43;;;;;;;8.40;5.30;;;;;;;14.92;68.97;102175.22;5096120;28;20736;-78
2022/07/18 04:32:09;;;;;;;8.68;4.95;;;;;;;14.92;69.30;102171.66;5097140;28;20277;-78
2022/07/18 04:34:34;;;;;;;9.60;5.82;;;;;;;14.97;68.89;102174.84;5098380;28;20028;-78
2022/07/18 04:36:59;;;;;;;7.80;5.07;;;;;;;14.96;68.25;102165.16;5095084;28;20040;-78
2022/07/18 04:39:25;;;;;;;6.93;4.90;;;;;;;15.04;68.98;102170.78;5085895;28;20028;-79
2022/07/18 04:41:50;;;;;;;6.25;4.65;;;;;;;15.07;69.18;102169.69;5094042;28;20032;-78
2022/07/18 04:44:15;;;;;;;7.63;4.60;;;;;;;15.12;69.25;102184.44;5089595;28;20017;-78
2022/07/18 04:46:41;;;;;;;8.95;4.78;;;;;;;15.15;68.77;102173.50;5082873;28;20039;-78
2022/07/18 04:49:06;;;;;;;7.95;4.85;;;;;;;15.18;69.34;102173.25;5085278;28;20032;-78
2022/07/18 04:51:32;;;;;;;10.25;4.97;;;;;;;15.25;68.36;102175.47;5061602;28;20029;-78
2022/07/18 04:53:57;;;;;;;9.93;5.13;;;;;;;15.30;69.03;102174.16;5059143;28;20016;-78
2022/07/18 04:56:23;;;;;;;9.38;5.07;;;;;;;15.32;69.30;102180.28;5096202;28;20030;-78
2022/07/18 04:58:49;;;;;;;9.88;5.60;;;;;;;15.42;69.22;102176.88;5092814;28;20038;-78
2022/07/18 05:01:14;;;;;;;8.18;5.05;;;;;;;15.50;69.39;102174.47;5093857;28;20024;-78
2022/07/18 05:03:42;;;;;;;9.93;4.93;;;;;;;15.61;68.05;102179.88;5072768;28;20078;-79
2022/07/18 05:06:08;;;;;;;11.97;5.00;;;;;;;15.73;67.03;102178.91;5074609;28;20479;-78
2022/07/18 05:08:33;;;;;;;10.63;5.10;;;;;;;15.83;65.63;102179.09;5092727;28;20062;-78
2022/07/18 05:10:59;;;;;;;8.85;4.45;;;;;;;15.93;65.04;102176.53;5092602;28;20024;-78
2022/07/18 05:13:24;;;;;;;6.78;4.43;;;;;;;16.04;63.14;102168.53;5093836;28;20026;-78
2022/07/18 05:15:50;;;;;;;9.00;4.63;;;;;;;16.18;62.38;102179.97;5063507;28;20030;-78
2022/07/18 05:18:16;;;;;;;11.23;4.80;;;;;;;16.22;62.26;102165.34;5066464;28;20020;-78
2022/07/18 05:20:41;;;;;;;11.10;4.55;;;;;;;16.32;61.87;102178.88;5075622;28;20456;-77
2022/07/18 05:23:07;;;;;;;14.18;4.85;;;;;;;16.40;61.68;102182.66;5082231;28;20033;-78
2022/07/18 05:25:32;;;;;;;12.35;4.90;;;;;;;16.41;61.65;102176.31;5088517;28;20241;-78
2022/07/18 05:27:58;;;;;;;13.60;5.07;;;;;;;16.54;61.25;102175.34;5088029;28;20036;-78
2022/07/18 05:30:24;;;;;;;11.15;4.70;;;;;;;16.60;60.90;102175.69;5091666;28;20028;-79
2022/07/18 05:32:51;;;;;;;11.23;4.63;;;;;;;16.71;60.50;102182.84;5074987;28;20036;-79
2022/07/18 05:35:17;;;;;;;9.23;4.35;;;;;;;16.80;60.68;102171.38;5092698;28;20024;-81
2022/07/18 05:37:43;;;;;;;10.88;4.72;;;;;;;17.04;61.26;102180.22;5094686;28;20486;-80
2022/07/18 05:40:10;;;;;;;7.45;4.68;;;;;;;17.20;59.73;102181.53;5096966;28;20107;-79
2022/07/18 05:42:36;;;;;;;10.73;4.90;;;;;;;17.45;58.86;102184.81;5083617;28;20115;-81
2022/07/18 05:45:02;;;;;;;9.38;4.30;;;;;;;17.59;58.91;102172.91;5086643;28;20062;-79
2022/07/18 05:47:28;;;;;;;13.50;4.88;;;;;;;17.89;56.40;102182.88;5082773;28;20032;-79
2022/07/18 05:49:54;;;;;;;16.58;4.80;;;;;;;18.12;55.66;102177.34;5089802;28;20056;-80
2022/07/18 05:52:19;;;;;;;14.73;4.90;;;;;;;18.34;55.77;102178.16;5097088;28;20127;-79
2022/07/18 05:54:44;;;;;;;14.32;5.05;;;;;;;18.57;54.46;102173.38;5098913;28;20425;-79
2022/07/18 05:57:10;;;;;;;13.60;5.15;;;;;;;18.74;54.85;102179.97;5091791;28;20031;-80
2022/07/18 05:59:35;;;;;;;18.15;5.05;;;;;;;19.01;54.36;102174.75;5063222;28;20131;-80
2022/07/18 06:02:01;;;;;;;23.15;5.47;;;;;;;19.22;53.02;102168.41;5087274;28;20032;-80
2022/07/18 06:04:29;;;;;;;15.25;4.88;;;;;;;19.48;53.11;102173.22;5093834;28;20051;-79
2022/07/18 06:06:54;;;;;;;14.70;4.47;;;;;;;19.63;51.22;102165.53;5061200;28;20086;-80
2022/07/18 06:09:19;;;;;;;10.40;4.40;;;;;;;19.95;50.99;102176.84;5085371;28;20045;-80
2022/07/18 06:11:45;;;;;;;10.07;4.27;;;;;;;20.22;49.52;102180.56;5098686;28;20102;-79
2022/07/18 06:14:10;;;;;;;9.65;4.30;;;;;;;20.43;49.88;102183.00;5096581;28;20298;-81
2022/07/18 06:16:36;;;;;;;13.70;5.37;;;;;;;20.65;48.69;102181.81;5093041;28;20029;-80
2022/07/18 06:19:05;;;;;;;13.18;4.85;;;;;;;20.87;48.71;102166.16;5097085;28;20859;-81
2022/07/18 06:21:32;;;;;;;14.80;5.30;;;;;;;21.13;48.05;102163.53;5068685;28;20145;-80
2022/07/18 06:23:57;;;;;;;14.90;4.85;;;;;;;21.28;47.75;102158.41;5100292;28;20039;-82
2022/07/18 06:26:23;;;;;;;11.48;4.85;;;;;;;21.47;46.13;102157.44;5099874;28;20024;-85
2022/07/18 06:28:48;;;;;;;11.10;4.72;;;;;;;21.59;45.41;102153.47;5105061;28;20052;-85
2022/07/18 06:31:17;;;;;;;17.10;4.43;;;;;;;21.70;46.38;102154.19;5097915;28;20012;-83
2022/07/18 06:33:42;;;;;;;15.43;4.38;;;;;;;21.79;46.31;102148.69;5074684;28;20032;-84
2022/07/18 06:36:08;;;;;;;12.45;4.88;;;;;;;22.05;44.85;102150.53;5085445;28;20021;-85
2022/07/18 06:38:34;;;;;;;8.60;3.80;;;;;;;22.18;44.75;102141.94;5086824;28;20016;-84
2022/07/18 06:40:59;;;;;;;10.27;4.30;;;;;;;22.28;44.07;102145.44;5098153;28;20032;-81
2022/07/18 06:43:24;;;;;;;11.20;4.10;;;;;;;22.45;44.05;102146.31;5086104;28;20024;-80
2022/07/18 06:45:52;;;;;;;11.10;4.10;;;;;;;22.49;44.15;102125.19;5093466;28;20365;-81
2022/07/18 06:48:18;;;;;;;9.10;3.90;;;;;;;22.60;44.19;102138.41;5085186;28;20286;-82
2022/07/18 06:50:43;;;;;;;11.05;4.00;;;;;;;22.63;45.25;102124.56;5091755;28;20028;-82
2022/07/18 06:53:08;;;;;;;9.48;3.88;;;;;;;22.97;44.48;102130.84;5089994;28;20055;-81
2022/07/18 06:55:34;;;;;;;13.63;3.67;;;;;;;23.22;43.16;102134.44;5082490;28;20031;-82
2022/07/18 06:57:59;;;;;;;13.35;4.00;;;;;;;23.43;43.08;102131.19;5077197;28;20291;-81
2022/07/18 07:00:26;;;;;;;10.83;3.40;;;;;;;23.63;42.86;102132.53;5095539;28;20035;-82
2022/07/18 07:02:51;;;;;;;7.90;3.05;;;;;;;23.91;41.55;102134.00;5090178;28;20283;-82
2022/07/18 07:05:18;;;;;;;10.25;3.60;;;;;;;24.08;41.27;102140.22;5094999;28;20082;-81
2022/07/18 07:07:44;;;;;;;16.95;3.80;;;;;;;24.20;41.51;102134.25;5096221;28;20032;-81
2022/07/18 07:10:09;;;;;;;10.27;3.67;;;;;;;24.41;41.77;102121.91;5081578;28;20115;-81
2022/07/18 07:12:43;;;;;;;12.35;3.35;;;;;;;24.67;40.05;102131.66;5087059;28;20032;-81
2022/07/18 07:15:09;;;;;;;10.70;3.20;;;;;;;24.85;39.93;102139.53;5089364;28;20086;-81
2022/07/18 07:17:36;;;;;;;10.00;3.10;;;;;;;25.00;38.24;102140.41;5092898;28;20115;-82
2022/07/18 07:20:03;;;;;;;16.50;3.17;;;;;;;25.24;38.11;102144.78;5073458;28;20036;-81
2022/07/18 07:22:28;;;;;;;11.10;2.65;;;;;;;25.48;38.72;102149.22;5086401;28;20115;-76
2022/07/18 07:24:53;;;;;;;11.38;3.28;;;;;;;25.64;38.04;102155.50;5091829;28;20157;-76
2022/07/18 07:27:19;;;;;;;10.57;3.00;;;;;;;25.80;35.62;102141.72;5092021;28;20032;-76
2022/07/18 07:29:44;;;;;;;12.87;2.47;;;;;;;26.04;36.36;102150.66;5082559;28;20467;-76
2022/07/18 07:32:09;;;;;;;5.63;2.40;;;;;;;26.20;34.31;102142.31;5092929;28;20282;-76
2022/07/18 07:34:35;;;;;;;10.25;2.33;;;;;;;26.44;34.99;102142.16;5066975;28;20282;-76
2022/07/18 07:37:00;;;;;;;6.87;2.57;;;;;;;26.52;34.02;102139.31;5082275;28;20028;-76
2022/07/18 07:39:27;;;;;;;10.70;2.38;;;;;;;26.83;33.94;102140.94;5089494;28;20337;-76
2022/07/18 07:41:52;;;;;;;6.13;1.98;;;;;;;27.00;33.13;102145.09;5081245;28;20047;-76
2022/07/18 07:44:18;;;;;;;9.23;2.38;;;;;;;27.28;33.36;102145.13;5095735;28;20065;-79
2022/07/18 07:46:43;;;;;;;6.03;2.30;;;;;;;27.44;32.39;102133.09;5067209;28;20039;-79
2022/07/18 07:49:08;;;;;;;6.13;2.40;;;;;;;27.64;32.39;102140.59;5082355;28;20042;-82
2022/07/18 07:51:33;;;;;;;6.80;2.50;;;;;;;27.91;32.17;102130.66;5083964;28;20064;-81
2022/07/18 07:53:59;;;;;;;5.30;1.83;;;;;;;28.13;31.75;102133.31;5073406;28;20267;-80
2022/07/18 07:56:24;;;;;;;7.80;2.13;;;;;;;28.41;31.33;102122.28;5053253;28;20365;-81
2022/07/18 07:58:49;;;;;;;10.70;2.10;;;;;;;28.66;30.10;102116.28;5054384;28;20020;-81
2022/07/18 08:01:19;;;;;;;5.70;1.90;;;;;;;28.72;29.20;102110.84;5065953;28;20012;-81
2022/07/18 08:03:46;;;;;;;5.78;2.10;;;;;;;28.88;29.50;102106.88;5066041;28;20337;-81
2022/07/18 08:06:14;;;;;;;7.07;2.15;;;;;;;29.09;30.82;102105.81;5061413;28;20029;-81
2022/07/18 08:08:39;;;;;;;9.90;2.22;;;;;;;29.37;28.92;102102.03;5074115;28;20391;-81
2022/07/18 08:11:06;;;;;;;7.00;2.28;;;;;;;29.44;29.50;102102.03;5074354;28;20036;-81
2022/07/18 08:13:32;;;;;;;7.50;2.22;;;;;;;29.57;28.23;102103.91;5054082;28;20497;-82
2022/07/18 08:15:57;;;;;;;9.43;2.15;;;;;;;29.93;28.34;102099.81;5053150;28;20123;-81
2022/07/18 08:18:22;;;;;;;4.83;1.70;;;;;;;30.04;28.02;102091.78;5070519;28;20013;-82
2022/07/18 08:20:48;;;;;;;6.80;2.40;;;;;;;30.29;27.31;102093.75;5054139;28;20267;-81
2022/07/18 08:23:13;;;;;;;8.98;2.53;;;;;;;30.41;27.96;102096.66;5070562;28;20044;-81
2022/07/18 08:25:40;;;;;;;13.30;2.47;;;;;;;30.77;27.21;102085.00;5055038;28;20116;-81
2022/07/18 08:28:06;;;;;;;22.95;3.33;;;;;;;30.94;27.25;102084.47;5061868;28;20032;-81
2022/07/18 08:30:33;;;;;;;24.25;3.72;;;;;;;30.97;27.67;102084.88;5065591;28;20029;-81
2022/07/18 08:32:58;;;;;;;15.77;2.50;;;;;;;31.19;27.58;102081.72;5069964;28;20676;-81
2022/07/18 08:35:24;;;;;;;7.60;2.20;;;;;;;31.47;26.50;102092.22;5071274;28;20032;-81
2022/07/18 08:37:50;;;;;;;9.50;2.00;;;;;;;31.50;26.44;102100.00;5071847;28;20078;-82
2022/07/18 08:40:16;;;;;;;8.77;2.20;;;;;;;31.77;25.52;102094.25;5069212;28;20024;-81
2022/07/18 08:42:41;;;;;;;8.02;2.25;;;;;;;31.76;26.17;102092.59;5054692;28;20059;-81
2022/07/18 08:45:07;;;;;;;6.55;2.50;;;;;;;31.97;25.95;102094.00;5062307;28;20371;-81
2022/07/18 08:47:33;;;;;;;7.82;2.15;;;;;;;32.16;25.94;102097.59;5069698;28;20039;-81
2022/07/18 08:50:01;;;;;;;15.75;2.78;;;;;;;31.95;25.42;102095.31;5054866;28;20021;-82
2022/07/18 08:52:28;;;;;;;7.68;2.20;;;;;;;32.51;26.85;102098.78;5076993;28;20048;-82
2022/07/18 08:54:56;;;;;;;13.18;2.33;;;;;;;32.44;25.65;102093.41;5084336;28;20585;-83
2022/07/18 08:57:22;;;;;;;13.03;2.50;;;;;;;32.63;25.62;102089.53;5092293;28;20119;-82
2022/07/18 08:59:47;;;;;;;9.45;2.33;;;;;;;32.96;25.42;102092.84;5091591;28;20020;-83
2022/07/18 09:02:12;;;;;;;6.33;2.27;;;;;;;32.99;25.56;102087.69;5083601;28;20103;-83
2022/07/18 09:04:42;;;;;;;7.45;2.30;;;;;;;33.15;25.54;102091.66;5068851;28;20027;-83
2022/07/18 09:07:09;;;;;;;6.40;2.00;;;;;;;33.49;25.16;102082.78;5061653;28;20052;-82
2022/07/18 09:09:36;;;;;;;13.27;2.22;;;;;;;33.64;23.83;102088.66;5076925;28;20058;-81
2022/07/18 09:12:09;;;;;;;11.18;2.20;;;;;;;33.58;24.90;102078.59;5086637;28;20519;-81
2022/07/18 09:14:34;;;;;;;9.32;2.03;;;;;;;33.76;24.00;102094.16;5084907;28;20047;-82
2022/07/18 09:17:07;;;;;;;8.07;2.40;;;;;;;34.19;25.15;102089.22;5073914;28;20056;-82
2022/07/18 09:19:33;;;;;;;14.10;2.53;;;;;;;34.03;23.48;102091.66;5072214;28;20360;-82
2022/07/18 09:22:21;;;;;;;9.70;2.60;;;;;;;34.42;25.38;102091.03;5084737;28;20024;-82
2022/07/18 09:24:59;;;;;;;11.90;2.45;;;;;;;34.48;23.48;102095.56;5083152;28;20561;-82
2022/07/18 09:27:29;;;;;;;7.13;1.98;;;;;;;34.77;22.37;102092.78;5072089;28;20020;-82
2022/07/18 09:30:08;;;;;;;4.55;1.90;;;;;;;35.10;24.18;102093.88;5084596;28;20012;-82
2022/07/18 09:32:34;;;;;;;9.57;1.80;;;;;;;35.08;23.05;102096.06;5077202;28;20091;-82
2022/07/18 09:35:08;;;;;;;8.70;2.63;;;;;;;35.23;23.27;102095.47;5091502;28;20013;-82
2022/07/18 09:37:34;;;;;;;11.45;2.00;;;;;;;35.39;22.71;102089.91;5073274;28;20033;-81
2022/07/18 09:40:20;;;;;;;8.27;2.08;;;;;;;35.64;24.39;102093.25;5072061;28;20126;-82
2022/07/18 09:42:52;;;;;;;6.70;1.77;;;;;;;35.61;23.32;102091.88;5091771;28;20027;-82
2022/07/18 09:45:42;;;;;;;3.88;1.80;;;;;;;35.89;23.40;102090.00;5092649;28;20031;-82
2022/07/18 09:48:13;;;;;;;6.07;1.90;;;;;;;35.48;23.04;102086.72;5064596;28;20039;-81
2022/07/18 09:50:49;;;;;;;3.60;1.75;;;;;;;35.78;22.16;102082.72;5084025;28;20027;-81
2022/07/18 09:53:26;;;;;;;5.10;1.90;;;;;;;36.04;22.74;102081.06;5072327;28;20043;-81
2022/07/18 09:55:57;;;;;;;5.53;1.67;;;;;;;36.05;22.92;102066.97;5082683;28;20028;-81
2022/07/18 09:58:27;;;;;;;5.07;1.65;;;;;;;36.45;22.81;102081.50;5092570;28;20035;-81
2022/07/18 10:00:54;;;;;;;5.40;1.85;;;;;;;36.50;22.20;102073.25;5092145;28;20028;-82
2022/07/18 10:03:21;;;;;;;4.32;1.60;;;;;;;36.57;21.90;102073.03;5083672;28;20074;-82
2022/07/18 10:05:47;;;;;;;4.30;1.67;;;;;;;36.63;22.44;102080.28;5080504;28;20028;-81
2022/07/18 10:08:16;;;;;;;5.30;1.80;;;;;;;37.05;22.09;102071.22;5092358;28;20059;-83
2022/07/18 10:10:44;;;;;;;5.75;1.77;;;;;;;37.14;20.86;102077.94;5079463;28;20036;-81
2022/07/18 10:13:10;;;;;;;5.75;2.28;;;;;;;37.67;21.54;102072.41;5094071;28;20032;-81
2022/07/18 10:15:40;;;;;;;5.75;2.10;;;;;;;37.43;20.97;102076.72;5083546;28;20025;-81
2022/07/18 10:18:12;;;;;;;4.45;1.90;;;;;;;37.55;20.72;102057.94;5064268;28;20025;-82
2022/07/18 10:20:48;;;;;;;6.78;1.73;;;;;;;37.69;21.16;102073.00;5078710;28;20029;-82
2022/07/18 10:23:20;;;;;;;4.20;1.85;;;;;;;37.51;21.28;102076.22;5083575;28;20082;-82
2022/07/18 10:26:06;;;;;;;4.22;1.80;;;;;;;38.12;22.52;102072.81;5088688;28;20026;-82
2022/07/18 10:28:31;;;;;;;5.90;1.60;;;;;;;38.04;20.70;102071.44;5092533;28;20032;-82
2022/07/18 10:31:13;;;;;;;5.93;1.80;;;;;;;38.28;20.64;102062.63;5094054;28;20031;-82
2022/07/18 10:33:48;;;;;;;6.28;1.80;;;;;;;38.29;20.56;102070.69;5094151;28;20146;-82
2022/07/18 10:36:15;;;;;;;3.92;1.80;;;;;;;38.22;19.99;102066.50;5094474;28;20027;-82
2022/07/18 10:39:06;;;;;;;4.47;1.60;;;;;;;38.75;21.32;102067.09;5097072;28;20024;-82
2022/07/18 10:41:31;;;;;;;6.55;1.60;;;;;;;38.93;19.97;102067.63;5078858;28;20482;-82
2022/07/18 10:43:56;;;;;;;4.63;1.55;;;;;;;38.53;19.01;102063.75;5094504;28;20043;-81
2022/07/18 10:46:22;;;;;;;3.75;1.67;;;;;;;38.57;18.39;102060.13;5096451;28;20036;-82
2022/07/18 10:48:52;;;;;;;4.00;1.60;;;;;;;38.61;18.09;102064.06;5084083;28;20035;-82
2022/07/18 10:51:19;;;;;;;4.30;1.35;;;;;;;38.75;18.58;102055.97;5095187;28;20103;-83
2022/07/18 10:53:53;;;;;;;3.60;1.40;;;;;;;38.67;18.57;102056.53;5095599;28;20052;-83
2022/07/18 10:56:19;;;;;;;3.15;1.65;;;;;;;38.37;18.42;102055.41;5095441;28;20063;-82
2022/07/18 10:58:44;;;;;;;3.35;1.30;;;;;;;38.48;18.16;102056.25;5089151;28;20028;-83
2022/07/18 11:01:20;;;;;;;1.97;1.37;;;;;;;38.42;19.03;102054.56;5074841;28;20241;-83
2022/07/18 11:03:45;;;;;;;2.45;1.45;;;;;;;38.57;18.18;102062.06;5095165;28;20032;-83
2022/07/18 11:06:11;;;;;;;4.32;1.60;;;;;;;38.76;18.39;102052.09;5094427;28;20028;-82
2022/07/18 11:08:38;;;;;;;1.85;1.33;;;;;;;39.19;17.88;102055.38;5089515;28;20511;-83
2022/07/18 11:11:06;;;;;;;3.25;1.40;;;;;;;39.23;18.29;102053.69;5092140;28;20063;-83
2022/07/18 11:13:35;;;;;;;5.38;1.67;;;;;;;39.42;17.73;102050.28;5083044;28;20043;-82
2022/07/18 11:16:06;;;;;;;3.08;1.42;;;;;;;39.23;17.44;102045.34;5093576;28;20032;-82
2022/07/18 11:18:53;;;;;;;4.10;1.70;;;;;;;39.53;16.54;102034.44;5086624;28;20024;-82
2022/07/18 11:21:21;;;;;;;5.22;1.73;;;;;;;39.68;16.84;102034.34;5083035;28;20047;-82
2022/07/18 11:23:49;;;;;;;5.20;1.90;;;;;;;39.72;17.37;102043.78;5089419;28;20036;-81